This is the latest recevied weather packets stored in our database for station/object IN3MWE-10. If no packets are shown the sender has not sent any weather packets the latest 10 day(s).
| Time | Temp. | Humidity | Pressure | Rain* | Wind** | Luminosity | Snow |
|---|---|---|---|---|---|---|---|
| 1787659519 | 32.78° C | 40% | 976 hPa | - | - | - | - |
| 1787658619 | 31.67° C | 42% | 976.1 hPa | - | - | - | - |
| 1787657719 | 31.67° C | 43% | 976.2 hPa | - | - | - | - |
| 1787656819 | 32.78° C | 44% | 976.4 hPa | - | - | - | - |
| 1787655919 | 25° C | 72% | 976.7 hPa | - | - | - | - |
| 1787655019 | 25.56° C | 76% | 976.8 hPa | - | - | - | - |
| 1787654119 | 23.33° C | 96% | 977 hPa | - | - | - | - |
| 1787653219 | 22.78° C | 97% | 977.1 hPa | - | - | - | - |
| 1787652318 | 21.67° C | 100% | 977.2 hPa | - | - | - | - |
| 1787651418 | 21.11° C | 100% | 977.1 hPa | - | - | - | - |
| 1787650518 | 22.22° C | 94% | 977 hPa | - | - | - | - |
| 1787649618 | 22.22° C | 92% | 976.8 hPa | - | - | - | - |
| 1787648718 | 22.22° C | 89% | 976.7 hPa | - | - | - | - |
| 1787647818 | 22.22° C | 86% | 976.4 hPa | - | - | - | - |
| 1787646918 | 22.22° C | 91% | 976.4 hPa | - | - | - | - |
| 1787646017 | 22.22° C | 98% | 976.2 hPa | - | - | - | - |
| 1787645117 | 21.67° C | 99% | 976.2 hPa | - | - | - | - |
| 1787644217 | 22.22° C | 97% | 976.1 hPa | - | - | - | - |
| 1787643317 | 22.22° C | 100% | 976.2 hPa | - | - | - | - |
| 1787642417 | 21.67° C | 100% | 976.1 hPa | - | - | - | - |
| 1787641517 | 21.67° C | 100% | 976 hPa | - | - | - | - |
| 1787640617 | 20.56° C | 100% | 976.1 hPa | - | - | - | - |
| 1787639717 | 20.56° C | 100% | 976.1 hPa | - | - | - | - |
| 1787638816 | 20.56° C | 100% | 975.7 hPa | - | - | - | - |
| 1787637916 | 20° C | 100% | 975.8 hPa | - | - | - | - |
* Rain since midnight (hover to see other rain measurements)
** Current wind speed in m/s (hover to see current wind gust speed)